Friday, March 27, 2015
11:59 UTC
  |  Log In   |  Register Free
Airport Search:

Corpus Christi International Airport
(KCRP)

FAA data valid effective March 05, 2015 - April 30, 2015 (unless otherwise noted).

 
 
 
 
 
 
 
 
 
 
 
 
 
 

Current Aviation Weather for Corpus Christi International Airport (KCRP)

The most recent METAR observation for KCRP was updated at: 1408
METAR Summary (Translated METAR)
KCRP
251351Z 13008KT 10SM FEW012 FEW075 OVC250 20/19 A2996 RMK AO2 SLP143 T02000189
KRBO
251355Z 7SM CLR 20/20 A2996 RMK AO2 T01950195
(10.1 nm NW from KCRP)
KNGP
251356Z 12009KT 10SM FEW008 FEW017 OVC250 21/20 A2996 RMK AO2 SLP144 T02060200
(12.1 nm SE from KCRP)
TAF Summary (Translated TAF)
KCRP
251130Z 2512/2612 14005KT P6SM FEW008 FM251500 16012KT P6SM OVC012 FM251700 15015G25KT P6SM OVC025 FM260100 15012KT P6SM OVC012 FM260600 16005KT 3SM BR OVC005
KNGP
(12.1 nm SE from KCRP)
2512/2607 16009KT 9999 FEW008 SCT013 BKN250 QNH2991INS TEMPO 2513/2517 SCT008 BKN013 OVC250 BECMG 2515/2517 14016G22KT 9999 FEW008 SCT015 BKN020 BKN250 510005 QNH2991INS TEMPO 2517/2523 14018G25KT SCT015 SCT020 OVC250 FM252300 14012KT 9999 FEW008 BKN013 BKN120 OVC250 500000 QNH2982INS T19/2512Z T25/2520Z COR 1249 FN20043
  Airport Weather Conditions for KCRP

 Current Weather at CRP
50° F
A Few Clouds
Northwest winds at 4.6 mph
CRP NOAA Radar

Pressure: 30.19 in
Humidity: 83%
Wind: Northwest at 4.6 MPH (4 KT)
Dew Point: 45.0°F
Visibility: 10.00 mi


Airport Weather Forecast for KCRP

Translated METAR and TAF for KCRP
Translated METAR for KCRP (1158 UTC 27 March 2015)
found at http://aviationweather.gov/adds/metars/
 
METAR text: KCRP 271151Z 27004KT 10SM FEW150 FEW250 09/07 A3020 RMK AO2 SLP225 70003 T00940072 10150 20094 55002
Conditions at: KCRP (CORPUS CHRISTI , TX, US) observed 1151 UTC 27 March 2015
Temperature: 9.4°C (49°F)
Dewpoint: 7.2°C (45°F) [RH = 86%]
Pressure (altimeter): 30.20 inches Hg (1022.8 mb)
[Sea-level pressure: 1022.5 mb]
Winds: from the W (270 degrees) at 5 MPH (4 knots; 2.1 m/s)
Visibility: 10 or more miles (16+ km)
Ceiling: at least 12,000 feet AGL
Clouds: few clouds at 15000 feet AGL
few clouds at 25000 feet AGL
Weather: no significant weather observed at this time
Translated TAF for KCRP
Forecast for: KCRP (CORPUS CHRISTI , TX, US)
TAF Text: KCRP 271120Z 2712/2812 34006KT P6SM FEW250
Forecast period: 1200 UTC 27 March 2015 to 1200 UTC 28 March 2015
Forecast type: FROM: standard forecast or significant change
Winds: from the NNW (340 degrees) at 7 MPH (6 knots; 3.1 m/s)
Visibility: 6 or more miles (10+ km)
Clouds: few clouds at 25000 feet AGL
Weather: no significant weather forecast for this period

Find All Airport Services Find A Hotel Find A Rental Car Find A Golf Course Find A Restaurant $100 Hamburger



FBO's on the Field
FBO Company Facility Photos Services Transportation Aviation Fuel Prices: Prices include tax
Catering Weather Repair Courtesy Rental Type 100LL JetA JetA+ MOGAS 8087
 
Atlantic Aviation

This FBO has not yet been rated
FS:Independent
Last Updated: Mar-26
Login to update fuel prices
SS:
Contact Atlantic AviationMore FBO Information
 
Signature Flight Support

This FBO has not yet been rated
FS:Avfuel
Last Updated: Mar-26
Login to update fuel prices
SS:
Contact Signature Flight SupportMore FBO Information
 
Add another FBO Facility Photos Catering Weather Repair Courtesy Rental Type 100LL JetA JetA+ MOGAS 8087
Services Transportation Aviation Fuel Prices: Prices include tax


model-print
model-print
model-print
model-print